createdAt,value
2022-09-06T00:01:13.277Z,20.09
2022-09-06T00:03:40.407Z,19.95
2022-09-06T00:06:13.762Z,19.85
2022-09-06T00:08:41.301Z,19.83
2022-09-06T00:11:08.419Z,19.83
2022-09-06T00:13:35.385Z,19.77
2022-09-06T00:16:10.589Z,19.78
2022-09-06T00:18:37.613Z,19.85
2022-09-06T00:21:12.808Z,19.93
2022-09-06T00:23:39.251Z,20.02
2022-09-06T00:26:05.862Z,20.09
2022-09-06T00:28:32.280Z,20.14
2022-09-06T00:30:58.774Z,20.12
2022-09-06T00:33:25.222Z,20.13
2022-09-06T00:35:59.109Z,20.12
2022-09-06T00:38:25.653Z,20.15
2022-09-06T00:40:52.296Z,20.17
2022-09-06T00:43:18.730Z,20.14
2022-09-06T00:45:45.357Z,20.11
2022-09-06T00:48:12.323Z,20.15
2022-09-06T00:50:38.752Z,20.17
2022-09-06T00:53:05.231Z,20.14
2022-09-06T00:55:31.689Z,20.19
2022-09-06T00:57:58.236Z,20.21
2022-09-06T01:00:24.652Z,20.21
2022-09-06T01:02:51.239Z,20.15
2022-09-06T01:05:18.334Z,20.17
2022-09-06T01:08:22.584Z,20.17
2022-09-06T01:11:21.692Z,20.13
2022-09-06T01:14:10.533Z,20.15
2022-09-06T01:17:21.493Z,20.12
2022-09-06T01:20:17.139Z,20.12
2022-09-06T01:23:10.676Z,20.09
2022-09-06T01:25:59.931Z,20.09
2022-09-06T01:28:59.062Z,20.02
2022-09-06T01:31:25.512Z,20.01
2022-09-06T01:33:58.742Z,19.96
2022-09-06T01:36:32.864Z,19.93
2022-09-06T01:38:59.295Z,19.90
2022-09-06T01:41:26.191Z,19.89
2022-09-06T01:43:54.111Z,19.83
2022-09-06T01:46:58.956Z,19.76
2022-09-06T01:49:37.408Z,19.66
2022-09-06T01:52:16.228Z,19.70
2022-09-06T01:54:51.666Z,19.69
2022-09-06T01:57:35.383Z,19.69
2022-09-06T02:00:09.184Z,19.66
2022-09-06T02:02:42.627Z,19.62
2022-09-06T02:05:18.291Z,19.55
2022-09-06T02:07:48.011Z,19.50
2022-09-06T02:10:23.611Z,19.49
2022-09-06T02:12:54.341Z,19.51
2022-09-06T02:15:23.393Z,19.50
2022-09-06T02:18:02.877Z,19.53
2022-09-06T02:20:37.433Z,19.52
2022-09-06T02:23:08.263Z,19.46
2022-09-06T02:25:41.579Z,19.47
2022-09-06T02:28:09.197Z,19.30
2022-09-06T02:30:40.746Z,19.12
2022-09-06T02:33:13.098Z,19.04
2022-09-06T02:35:44.920Z,18.94
2022-09-06T02:38:11.563Z,18.89
2022-09-06T02:40:38.164Z,18.91
2022-09-06T02:43:04.768Z,19.00
2022-09-06T02:45:31.175Z,19.03
2022-09-06T02:47:57.602Z,19.01
2022-09-06T02:50:24.027Z,19.05
2022-09-06T02:53:09.850Z,19.03
2022-09-06T02:55:37.228Z,19.05
2022-09-06T02:58:04.197Z,18.97
2022-09-06T03:00:31.108Z,18.93
2022-09-06T03:02:57.994Z,18.94
2022-09-06T03:05:26.085Z,18.99
2022-09-06T03:07:54.266Z,19.01
2022-09-06T03:10:22.182Z,19.02
2022-09-06T03:12:48.841Z,18.95
2022-09-06T03:15:16.135Z,18.97
2022-09-06T03:17:43.358Z,18.99
2022-09-06T03:20:10.829Z,19.01
2022-09-06T03:22:39.363Z,19.01
2022-09-06T03:25:07.203Z,19.00
2022-09-06T03:27:33.580Z,18.97
2022-09-06T03:30:00.165Z,18.94
2022-09-06T03:32:26.621Z,18.93
2022-09-06T03:34:53.031Z,18.89
2022-09-06T03:37:19.600Z,18.89
2022-09-06T03:39:46.046Z,18.88
2022-09-06T03:42:12.508Z,18.85
2022-09-06T03:44:39.111Z,18.80
2022-09-06T03:47:05.867Z,18.77
2022-09-06T03:49:32.358Z,18.76
2022-09-06T03:51:58.769Z,18.74
2022-09-06T03:54:25.173Z,18.71
2022-09-06T03:56:51.698Z,18.65
2022-09-06T03:59:18.114Z,18.60
2022-09-06T04:01:44.631Z,18.58
2022-09-06T04:04:11.124Z,18.55
2022-09-06T04:06:37.700Z,18.54
2022-09-06T04:09:04.185Z,18.56
2022-09-06T04:11:30.623Z,18.54
2022-09-06T04:13:57.024Z,18.56
2022-09-06T04:16:23.482Z,18.54
2022-09-06T04:18:50.040Z,18.52
2022-09-06T04:21:16.437Z,18.52
2022-09-06T04:23:42.871Z,18.52
2022-09-06T04:26:09.384Z,18.53
2022-09-06T04:28:35.863Z,18.56
2022-09-06T04:31:05.236Z,18.59
2022-09-06T04:33:33.629Z,18.54
2022-09-06T04:36:01.873Z,18.53
2022-09-06T04:38:30.481Z,18.52
2022-09-06T04:40:57.087Z,18.49
2022-09-06T04:43:23.820Z,18.46
2022-09-06T04:45:50.303Z,18.45
2022-09-06T04:48:16.983Z,18.44
2022-09-06T04:50:43.850Z,18.45
2022-09-06T04:53:11.099Z,18.48
2022-09-06T04:55:38.133Z,18.50
2022-09-06T04:58:05.728Z,18.47
2022-09-06T05:00:34.358Z,18.47
2022-09-06T05:03:00.901Z,18.46
2022-09-06T05:05:27.342Z,18.47
2022-09-06T05:07:57.200Z,18.46
2022-09-06T05:10:24.142Z,18.45
2022-09-06T05:12:53.109Z,18.46
2022-09-06T05:15:22.489Z,18.44
2022-09-06T05:17:49.104Z,18.46
2022-09-06T05:20:15.819Z,18.45
2022-09-06T05:22:42.322Z,18.46
2022-09-06T05:25:10.109Z,18.44
2022-09-06T05:27:36.700Z,18.42
2022-09-06T05:30:04.128Z,18.40
2022-09-06T05:32:30.666Z,18.39
2022-09-06T05:34:57.104Z,18.44
2022-09-06T05:37:23.811Z,18.43
2022-09-06T05:39:50.281Z,18.39
2022-09-06T05:42:19.239Z,18.38
2022-09-06T05:44:46.023Z,18.32
2022-09-06T05:47:12.470Z,18.31
2022-09-06T05:49:38.950Z,18.27
2022-09-06T05:52:05.530Z,18.24
2022-09-06T05:54:32.003Z,18.15
2022-09-06T05:56:58.490Z,17.99
2022-09-06T05:59:25.044Z,17.91
2022-09-06T06:01:54.506Z,17.89
2022-09-06T06:04:22.376Z,17.88
2022-09-06T06:06:49.415Z,17.95
2022-09-06T06:09:16.798Z,18.03
2022-09-06T06:11:43.988Z,18.01
2022-09-06T06:14:10.524Z,17.97
2022-09-06T06:16:37.162Z,17.97
2022-09-06T06:19:03.835Z,17.97
2022-09-06T06:21:32.244Z,18.01
2022-09-06T06:24:01.709Z,18.05
2022-09-06T06:26:31.678Z,18.11
2022-09-06T06:29:01.746Z,18.16
2022-09-06T06:31:33.499Z,18.17
2022-09-06T06:34:02.807Z,18.20
2022-09-06T06:36:31.620Z,18.23
2022-09-06T06:38:58.459Z,18.23
2022-09-06T06:41:27.295Z,18.24
2022-09-06T06:43:55.243Z,18.26
2022-09-06T06:46:22.962Z,18.25
2022-09-06T06:48:54.134Z,18.24
2022-09-06T06:51:23.819Z,18.33
2022-09-06T06:53:50.534Z,18.35
2022-09-06T06:56:21.555Z,18.41
2022-09-06T06:58:50.231Z,18.46
2022-09-06T07:01:17.330Z,18.51
2022-09-06T07:03:44.743Z,18.62
2022-09-06T07:06:12.023Z,18.72
2022-09-06T07:08:39.478Z,18.85
2022-09-06T07:11:07.794Z,19.01
2022-09-06T07:13:34.332Z,19.08
2022-09-06T07:16:08.517Z,19.19
2022-09-06T07:18:35.560Z,19.30
2022-09-06T07:26:36.333Z,19.59
2022-09-06T07:29:04.812Z,19.67
2022-09-06T07:34:19.314Z,19.92
2022-09-06T07:36:45.833Z,19.99
2022-09-06T07:39:12.380Z,20.03
2022-09-06T07:41:38.788Z,19.96
2022-09-06T07:44:05.215Z,19.98
2022-09-06T07:46:31.750Z,20.04
2022-09-06T07:48:58.242Z,20.08
2022-09-06T07:51:24.668Z,20.03
2022-09-06T07:54:07.009Z,20.08
2022-09-06T07:56:39.693Z,20.13
2022-09-06T07:59:06.316Z,20.15
2022-09-06T08:01:39.731Z,20.21
2022-09-06T08:04:07.158Z,20.27
2022-09-06T08:09:22.664Z,20.41
2022-09-06T08:11:51.016Z,20.41
2022-09-06T08:14:17.503Z,20.41
2022-09-06T08:16:44.141Z,20.43
2022-09-06T08:19:12.305Z,20.49
2022-09-06T08:21:38.834Z,20.52
2022-09-06T08:24:07.733Z,20.61
2022-09-06T08:26:35.824Z,20.70
2022-09-06T08:29:06.788Z,20.79
2022-09-06T08:31:35.251Z,20.86
2022-09-06T08:34:02.297Z,20.92
2022-09-06T08:36:30.543Z,21.05
2022-09-06T08:38:57.906Z,21.14
2022-09-06T08:41:38.891Z,21.19
2022-09-06T08:47:11.611Z,21.31
2022-09-06T08:49:50.171Z,21.40
2022-09-06T08:52:32.873Z,21.44
2022-09-06T08:55:25.389Z,21.58
2022-09-06T08:58:10.631Z,21.63
2022-09-06T09:00:38.517Z,21.74
2022-09-06T09:03:17.196Z,21.81
2022-09-06T09:05:48.223Z,21.89
2022-09-06T09:08:20.415Z,21.94
2022-09-06T09:11:05.578Z,21.99
2022-09-06T09:13:47.299Z,22.05
2022-09-06T09:16:15.396Z,22.16
2022-09-06T09:18:46.048Z,22.30
2022-09-06T09:21:13.910Z,22.39
2022-09-06T09:23:40.405Z,22.44
2022-09-06T09:26:15.024Z,22.52
2022-09-06T09:29:11.667Z,22.57
2022-09-06T09:31:42.936Z,22.61
2022-09-06T09:34:14.562Z,22.68
2022-09-06T09:36:41.233Z,22.78
2022-09-06T09:39:12.135Z,22.92
2022-09-06T09:41:43.010Z,23.00
2022-09-06T09:44:16.998Z,23.01
2022-09-06T09:46:43.789Z,23.04
2022-09-06T09:49:22.464Z,23.15
2022-09-06T09:52:12.022Z,23.27
2022-09-06T09:54:44.908Z,23.33
2022-09-06T09:57:17.640Z,23.48
2022-09-06T09:59:52.473Z,23.68
2022-09-06T10:02:39.100Z,23.81
2022-09-06T10:05:17.480Z,23.85
2022-09-06T10:07:47.348Z,23.90
2022-09-06T10:10:22.046Z,23.91
2022-09-06T10:12:49.751Z,23.95
2022-09-06T10:15:32.918Z,24.05
2022-09-06T10:17:59.432Z,24.13
2022-09-06T10:20:35.189Z,24.17
2022-09-06T10:23:05.039Z,24.30
2022-09-06T10:25:39.290Z,24.38
2022-09-06T10:28:12.121Z,24.49
2022-09-06T10:31:00.370Z,24.61
2022-09-06T10:33:29.787Z,24.70
2022-09-06T10:35:58.565Z,24.97
2022-09-06T10:38:24.997Z,25.02
2022-09-06T10:40:54.089Z,25.14
2022-09-06T10:43:20.918Z,25.10
2022-09-06T10:46:09.297Z,24.99
2022-09-06T10:48:40.937Z,25.04
2022-09-06T10:51:21.074Z,25.36
2022-09-06T10:54:10.555Z,25.37
2022-09-06T10:56:58.848Z,25.23
2022-09-06T10:59:36.303Z,25.39
2022-09-06T11:02:18.626Z,25.61
2022-09-06T11:10:37.726Z,26.02
2022-09-06T11:13:12.104Z,26.00
2022-09-06T11:15:47.766Z,26.23
2022-09-06T11:18:36.602Z,26.39
2022-09-06T11:21:38.459Z,26.65
2022-09-06T11:24:23.247Z,26.49
2022-09-06T11:27:14.455Z,26.30
2022-09-06T11:29:44.395Z,26.44
2022-09-06T11:32:35.102Z,26.81
2022-09-06T11:35:07.310Z,26.96
2022-09-06T11:37:39.400Z,26.98
2022-09-06T11:40:27.729Z,26.86
2022-09-06T11:42:54.985Z,26.52
2022-09-06T11:45:46.517Z,26.63
2022-09-06T11:48:34.016Z,26.86
2022-09-06T11:51:03.501Z,26.97
2022-09-06T11:53:33.940Z,27.09
2022-09-06T11:56:00.357Z,27.16
2022-09-06T11:58:31.553Z,27.23
2022-09-06T12:01:13.296Z,27.19
2022-09-06T12:07:08.565Z,27.33
2022-09-06T12:09:38.060Z,27.48
2022-09-06T12:12:05.009Z,27.49
2022-09-06T12:14:41.501Z,27.43
2022-09-06T12:17:08.839Z,27.53
2022-09-06T12:20:05.308Z,27.66
2022-09-06T12:22:40.178Z,27.63
2022-09-06T12:25:07.887Z,27.75
2022-09-06T12:27:54.167Z,27.84
2022-09-06T12:30:38.686Z,27.82
2022-09-06T12:33:14.325Z,27.90
2022-09-06T12:35:56.402Z,27.92
2022-09-06T12:38:25.570Z,27.92
2022-09-06T12:40:56.386Z,27.87
2022-09-06T12:43:22.889Z,27.97
2022-09-06T12:45:52.296Z,28.01
2022-09-06T12:48:30.732Z,27.91
2022-09-06T12:51:06.067Z,27.86
2022-09-06T12:53:34.372Z,27.82
2022-09-06T12:56:07.146Z,27.83
2022-09-06T12:58:34.980Z,27.83
2022-09-06T13:01:12.692Z,27.78
2022-09-06T13:03:49.644Z,27.77
2022-09-06T13:06:26.836Z,27.76
2022-09-06T13:08:56.947Z,27.83
2022-09-06T13:11:28.219Z,27.91
2022-09-06T13:13:55.338Z,27.90
2022-09-06T13:16:25.278Z,27.88
2022-09-06T13:18:52.020Z,28.05
2022-09-06T13:21:29.580Z,28.13
2022-09-06T13:23:58.958Z,28.14
2022-09-06T13:26:37.175Z,28.12
2022-09-06T13:29:30.798Z,28.13
2022-09-06T13:31:59.936Z,28.10
2022-09-06T13:34:33.644Z,28.14
2022-09-06T13:37:04.233Z,28.11
2022-09-06T13:39:39.407Z,28.00
2022-09-06T13:42:09.166Z,27.97
2022-09-06T13:44:37.966Z,27.85
2022-09-06T13:47:05.457Z,27.81
2022-09-06T13:49:32.476Z,27.82
2022-09-06T13:52:02.138Z,27.92
2022-09-06T13:54:30.403Z,27.99
2022-09-06T13:56:57.322Z,28.10
2022-09-06T13:59:25.177Z,28.29
2022-09-06T14:02:04.938Z,28.26
2022-09-06T14:04:32.355Z,28.07
2022-09-06T14:06:59.238Z,27.95
2022-09-06T14:09:25.745Z,28.03
2022-09-06T14:11:52.545Z,28.23
2022-09-06T14:14:19.442Z,28.21
2022-09-06T14:16:47.574Z,28.29
2022-09-06T14:19:14.544Z,28.39
2022-09-06T14:21:41.493Z,28.23
2022-09-06T14:24:08.154Z,28.37
2022-09-06T14:26:35.829Z,28.50
2022-09-06T14:29:02.897Z,28.49
2022-09-06T14:31:29.953Z,28.57
2022-09-06T14:33:57.516Z,28.64
2022-09-06T14:36:26.051Z,28.71
2022-09-06T14:38:53.120Z,28.47
2022-09-06T14:41:20.119Z,28.28
2022-09-06T14:43:50.598Z,28.54
2022-09-06T14:46:18.606Z,28.83
2022-09-06T14:48:46.186Z,28.96
2022-09-06T14:51:14.023Z,29.04
2022-09-06T14:53:42.228Z,29.05
2022-09-06T14:56:09.787Z,28.98
2022-09-06T14:58:37.561Z,29.03
2022-09-06T15:01:22.590Z,28.98
2022-09-06T15:03:55.605Z,28.76
2022-09-06T15:06:23.680Z,28.58
2022-09-06T15:08:52.843Z,28.53
2022-09-06T15:11:30.248Z,28.55
2022-09-06T15:13:58.638Z,28.50
2022-09-06T15:16:25.101Z,28.35
2022-09-06T15:18:51.556Z,28.25
2022-09-06T15:21:18.130Z,28.15
2022-09-06T15:23:44.726Z,27.97
2022-09-06T15:26:13.629Z,27.78
2022-09-06T15:28:42.053Z,27.81
2022-09-06T15:31:09.149Z,27.88
2022-09-06T15:33:37.505Z,27.87
2022-09-06T15:36:08.874Z,27.82
2022-09-06T15:38:47.395Z,27.86
2022-09-06T15:41:24.324Z,27.84
2022-09-06T15:43:54.496Z,27.88
2022-09-06T15:46:37.287Z,27.99
2022-09-06T15:49:07.015Z,28.06
2022-09-06T15:51:35.208Z,27.97
2022-09-06T15:54:01.703Z,27.93
2022-09-06T15:56:28.461Z,27.85
2022-09-06T15:58:54.851Z,27.80
2022-09-06T16:01:23.442Z,27.79
2022-09-06T16:04:03.271Z,27.84
2022-09-06T16:06:32.181Z,27.89
2022-09-06T16:09:01.970Z,27.84
2022-09-06T16:11:30.020Z,27.75
2022-09-06T16:13:56.615Z,27.72
2022-09-06T16:16:23.386Z,27.58
2022-09-06T16:18:50.378Z,27.41
2022-09-06T16:21:24.224Z,27.37
2022-09-06T16:23:56.837Z,27.31
2022-09-06T16:26:24.798Z,27.28
2022-09-06T16:28:52.482Z,27.27
2022-09-06T16:31:21.160Z,27.23
2022-09-06T16:33:49.020Z,27.21
2022-09-06T16:36:16.633Z,27.23
2022-09-06T16:38:43.612Z,27.21
2022-09-06T16:41:16.205Z,27.11
2022-09-06T16:43:43.657Z,27.05
2022-09-06T16:46:10.554Z,26.98
2022-09-06T16:48:38.111Z,26.91
2022-09-06T16:51:08.649Z,26.82
2022-09-06T16:53:35.162Z,26.79
2022-09-06T16:56:05.195Z,26.77
2022-09-06T16:58:31.621Z,26.71
2022-09-06T17:00:58.477Z,26.64
2022-09-06T17:03:25.241Z,26.63
2022-09-06T17:05:53.316Z,26.55
2022-09-06T17:08:20.505Z,26.47
2022-09-06T17:10:47.166Z,26.40
2022-09-06T17:13:13.743Z,26.33
2022-09-06T17:15:59.078Z,26.26
2022-09-06T17:18:26.698Z,26.22
2022-09-06T17:21:05.081Z,26.16
2022-09-06T17:23:32.184Z,26.12
2022-09-06T17:25:58.777Z,26.02
2022-09-06T17:28:25.800Z,25.97
2022-09-06T17:30:54.011Z,25.86
2022-09-06T17:33:21.664Z,25.73
2022-09-06T17:35:48.369Z,25.68
2022-09-06T17:38:16.263Z,25.63
2022-09-06T17:40:43.473Z,25.65
2022-09-06T17:43:10.070Z,25.60
2022-09-06T17:45:38.219Z,25.62
2022-09-06T17:48:05.591Z,25.64
2022-09-06T17:50:32.945Z,25.58
2022-09-06T17:53:00.103Z,25.54
2022-09-06T17:55:29.189Z,25.53
2022-09-06T17:57:58.950Z,25.45
2022-09-06T18:00:26.240Z,25.36
2022-09-06T18:02:54.540Z,25.33
2022-09-06T18:05:21.202Z,25.24
2022-09-06T18:07:47.982Z,25.17
2022-09-06T18:10:15.220Z,25.15
2022-09-06T18:12:42.392Z,25.10
2022-09-06T18:15:09.447Z,25.05
2022-09-06T18:17:36.037Z,24.88
2022-09-06T18:20:03.616Z,24.77
2022-09-06T18:22:30.522Z,24.71
2022-09-06T18:24:58.447Z,24.73
2022-09-06T18:27:25.722Z,24.75
2022-09-06T18:29:52.581Z,24.76
2022-09-06T18:32:18.986Z,24.68
2022-09-06T18:34:45.483Z,24.46
2022-09-06T18:37:12.095Z,24.38
2022-09-06T18:39:39.598Z,24.28
2022-09-06T18:42:11.076Z,24.14
2022-09-06T18:44:38.781Z,23.92
2022-09-06T18:47:06.952Z,23.83
2022-09-06T18:49:34.387Z,23.95
2022-09-06T18:52:02.550Z,24.03
2022-09-06T18:54:29.605Z,24.05
2022-09-06T18:56:56.358Z,24.07
2022-09-06T18:59:23.128Z,24.07
2022-09-06T19:01:49.862Z,24.05
2022-09-06T19:04:16.399Z,24.03
2022-09-06T19:06:44.525Z,23.98
2022-09-06T19:09:14.037Z,23.93
2022-09-06T19:11:45.635Z,23.93
2022-09-06T19:14:12.416Z,23.89
2022-09-06T19:16:39.020Z,23.86
2022-09-06T19:19:08.454Z,23.82
2022-09-06T19:21:40.780Z,23.72
2022-09-06T19:24:10.268Z,23.60
2022-09-06T19:26:39.814Z,23.53
2022-09-06T19:29:09.095Z,23.35
2022-09-06T19:31:37.864Z,23.03
2022-09-06T19:34:05.551Z,22.79
2022-09-06T19:36:32.779Z,22.82
2022-09-06T19:39:04.388Z,22.75
2022-09-06T19:41:33.580Z,22.76
2022-09-06T19:44:01.604Z,22.84
2022-09-06T19:46:28.263Z,22.84
2022-09-06T19:48:58.745Z,22.79
2022-09-06T19:51:25.692Z,22.78
2022-09-06T19:53:54.731Z,22.78
2022-09-06T19:56:24.000Z,22.70
2022-09-06T19:58:55.309Z,22.66
2022-09-06T20:01:22.691Z,22.62
2022-09-06T20:03:49.272Z,22.61
2022-09-06T20:06:15.852Z,22.48
2022-09-06T20:08:42.541Z,22.47
2022-09-06T20:11:12.463Z,22.48
2022-09-06T20:13:39.676Z,22.45
2022-09-06T20:16:08.068Z,22.46
2022-09-06T20:18:35.492Z,22.31
2022-09-06T20:21:02.541Z,22.25
2022-09-06T20:23:30.338Z,22.08
2022-09-06T20:26:07.909Z,21.99
2022-09-06T20:28:35.053Z,21.97
2022-09-06T20:31:07.177Z,22.00
2022-09-06T20:33:34.519Z,22.02
2022-09-06T20:36:03.994Z,21.94
2022-09-06T20:38:42.021Z,22.00
2022-09-06T20:41:20.393Z,21.99
2022-09-06T20:43:51.862Z,21.95
2022-09-06T20:46:20.946Z,21.97
2022-09-06T20:48:47.879Z,21.95
2022-09-06T20:51:23.256Z,21.96
2022-09-06T20:53:55.615Z,21.99
2022-09-06T20:56:25.624Z,22.10
2022-09-06T20:58:57.792Z,22.19
2022-09-06T21:01:26.353Z,22.26
2022-09-06T21:03:55.972Z,22.23
2022-09-06T21:06:23.991Z,22.19
2022-09-06T21:08:50.976Z,22.18
2022-09-06T21:11:17.836Z,22.14
2022-09-06T21:13:47.704Z,22.17
2022-09-06T21:16:14.323Z,22.05
2022-09-06T21:18:41.045Z,21.84
2022-09-06T21:21:08.115Z,21.70
2022-09-06T21:23:39.132Z,21.62
2022-09-06T21:26:08.205Z,21.58
2022-09-06T21:28:36.701Z,21.58
2022-09-06T21:31:15.328Z,21.58
2022-09-06T21:33:46.157Z,21.59
2022-09-06T21:36:18.127Z,21.59
2022-09-06T21:38:55.506Z,21.57
2022-09-06T21:41:22.934Z,21.56
2022-09-06T21:43:53.917Z,21.52
2022-09-06T21:46:22.082Z,21.53
2022-09-06T21:48:50.797Z,21.51
2022-09-06T21:51:20.337Z,21.52
2022-09-06T21:53:48.844Z,21.48
2022-09-06T21:56:16.571Z,21.44
2022-09-06T21:58:44.304Z,21.46
2022-09-06T22:01:10.802Z,21.49
2022-09-06T22:03:41.627Z,21.48
2022-09-06T22:06:17.011Z,21.45
2022-09-06T22:08:44.290Z,21.45
2022-09-06T22:11:13.147Z,21.49
2022-09-06T22:13:40.555Z,21.50
2022-09-06T22:16:08.392Z,21.53
2022-09-06T22:18:35.652Z,21.50
2022-09-06T22:21:10.706Z,21.46
2022-09-06T22:23:38.527Z,21.46
2022-09-06T22:26:09.678Z,21.44
2022-09-06T22:28:37.009Z,21.45
2022-09-06T22:31:05.142Z,21.41
2022-09-06T22:33:31.747Z,21.42
2022-09-06T22:36:00.242Z,21.40
2022-09-06T22:38:30.846Z,21.30
2022-09-06T22:40:58.390Z,21.06
2022-09-06T22:43:25.631Z,20.79
2022-09-06T22:45:52.357Z,20.48
2022-09-06T22:48:19.468Z,20.18
2022-09-06T22:50:47.213Z,19.93
2022-09-06T22:53:13.818Z,19.70
2022-09-06T22:55:40.611Z,19.51
2022-09-06T22:58:07.316Z,19.30
2022-09-06T23:00:36.287Z,18.91
2022-09-06T23:03:03.223Z,18.72
2022-09-06T23:05:31.066Z,18.48
2022-09-06T23:07:57.933Z,18.41
2022-09-06T23:10:24.371Z,18.27
2022-09-06T23:12:54.601Z,18.10
2022-09-06T23:15:21.523Z,18.04
2022-09-06T23:17:48.120Z,17.94
2022-09-06T23:20:14.694Z,17.91
2022-09-06T23:22:41.543Z,17.88
2022-09-06T23:25:08.764Z,17.89
2022-09-06T23:27:35.219Z,17.93
2022-09-06T23:30:02.857Z,17.96
2022-09-06T23:32:32.098Z,17.94
2022-09-06T23:34:58.753Z,17.96
2022-09-06T23:37:25.193Z,17.95
2022-09-06T23:39:52.512Z,17.96
2022-09-06T23:42:19.432Z,17.97
2022-09-06T23:44:45.955Z,18.00
2022-09-06T23:47:12.396Z,18.02
2022-09-06T23:49:38.946Z,18.01
2022-09-06T23:52:05.633Z,18.00
2022-09-06T23:54:32.044Z,17.99
2022-09-06T23:56:58.637Z,17.94
2022-09-06T23:59:25.194Z,17.95
